createdAt,value
2023-04-20T00:01:32.164Z,95986.47
2023-04-20T00:04:00.454Z,95983.34
2023-04-20T00:06:30.346Z,95980.81
2023-04-20T00:08:58.484Z,95983.00
2023-04-20T00:11:28.242Z,95978.97
2023-04-20T00:13:56.829Z,95980.59
2023-04-20T00:16:25.096Z,95973.91
2023-04-20T00:18:53.203Z,95974.50
2023-04-20T00:21:24.177Z,95975.50
2023-04-20T00:23:52.397Z,95963.53
2023-04-20T00:26:20.973Z,95967.19
2023-04-20T00:28:53.996Z,95964.22
2023-04-20T00:31:22.165Z,95961.56
2023-04-20T00:33:50.312Z,95960.75
2023-04-20T00:36:18.422Z,95963.19
2023-04-20T00:38:46.617Z,95965.47
2023-04-20T00:41:15.231Z,95961.94
2023-04-20T00:43:51.424Z,95958.63
2023-04-20T00:46:21.106Z,95960.69
2023-04-20T00:48:49.342Z,95960.09
2023-04-20T00:51:17.458Z,95954.81
2023-04-20T00:53:45.751Z,95956.66
2023-04-20T00:56:14.762Z,95954.16
2023-04-20T00:58:43.153Z,95953.34
2023-04-20T01:01:11.717Z,95957.63
2023-04-20T01:03:42.216Z,95955.56
2023-04-20T01:06:11.067Z,95955.78
2023-04-20T01:08:47.362Z,95952.31
2023-04-20T01:11:15.783Z,95955.47
2023-04-20T01:13:44.225Z,95946.28
2023-04-20T01:16:12.596Z,95949.22
2023-04-20T01:18:46.610Z,95947.84
2023-04-20T01:21:14.881Z,95945.78
2023-04-20T01:23:44.385Z,95939.22
2023-04-20T01:26:13.811Z,95943.56
2023-04-20T01:28:41.990Z,95938.72
2023-04-20T01:31:10.225Z,95939.91
2023-04-20T01:33:38.352Z,95943.13
2023-04-20T01:36:07.823Z,95938.06
2023-04-20T01:38:36.387Z,95934.25
2023-04-20T01:41:07.444Z,95939.53
2023-04-20T01:43:36.322Z,95939.09
2023-04-20T01:46:05.037Z,95942.34
2023-04-20T01:48:33.615Z,95939.44
2023-04-20T01:51:01.722Z,95940.03
2023-04-20T01:53:29.872Z,95932.56
2023-04-20T01:55:57.987Z,95929.97
2023-04-20T01:58:27.466Z,95936.66
2023-04-20T02:00:56.047Z,95937.09
2023-04-20T02:03:24.821Z,95931.53
2023-04-20T02:05:53.048Z,95931.19
2023-04-20T02:08:21.684Z,95925.91
2023-04-20T02:10:49.786Z,95933.63
2023-04-20T02:13:17.911Z,95925.69
2023-04-20T02:15:48.614Z,95926.69
2023-04-20T02:18:16.755Z,95925.09
2023-04-20T02:20:45.005Z,95925.31
2023-04-20T02:23:13.115Z,95928.97
2023-04-20T02:25:41.249Z,95931.84
2023-04-20T02:28:09.407Z,95926.53
2023-04-20T02:30:40.352Z,95932.06
2023-04-20T02:33:09.826Z,95923.31
2023-04-20T02:35:37.902Z,95930.69
2023-04-20T02:38:06.004Z,95929.63
2023-04-20T02:40:34.089Z,95927.78
2023-04-20T02:43:02.223Z,95928.84
2023-04-20T02:45:31.032Z,95924.19
2023-04-20T02:47:59.876Z,95925.09
2023-04-20T02:50:33.108Z,95918.53
2023-04-20T02:53:12.005Z,95920.38
2023-04-20T02:55:41.039Z,95915.16
2023-04-20T02:58:25.290Z,95921.47
2023-04-20T03:01:19.297Z,95914.94
2023-04-20T03:03:49.838Z,95921.28
2023-04-20T03:06:19.654Z,95918.84
2023-04-20T03:08:54.131Z,95921.69
2023-04-20T03:11:41.051Z,95905.50
2023-04-20T03:14:11.909Z,95915.69
2023-04-20T03:16:40.230Z,95917.00
2023-04-20T03:19:08.841Z,95911.19
2023-04-20T03:21:38.448Z,95915.97
2023-04-20T03:24:07.775Z,95913.75
2023-04-20T03:26:36.457Z,95914.44
2023-04-20T03:29:14.950Z,95912.50
2023-04-20T03:31:43.172Z,95908.88
2023-04-20T03:34:12.639Z,95913.41
2023-04-20T03:36:42.984Z,95912.28
2023-04-20T03:39:11.553Z,95911.75
2023-04-20T03:41:39.681Z,95916.06
2023-04-20T03:44:07.774Z,95915.91
2023-04-20T03:46:36.460Z,95901.75
2023-04-20T03:49:04.567Z,95915.00
2023-04-20T03:51:32.801Z,95915.03
2023-04-20T03:54:02.683Z,95906.56
2023-04-20T03:56:31.461Z,95917.16
2023-04-20T03:58:59.922Z,95918.81
2023-04-20T04:01:29.227Z,95921.84
2023-04-20T04:03:58.613Z,95916.56
2023-04-20T04:06:27.596Z,95913.28
2023-04-20T04:08:56.296Z,95921.78
2023-04-20T04:11:30.029Z,95917.09
2023-04-20T04:13:59.193Z,95916.91
2023-04-20T04:16:28.133Z,95913.59
2023-04-20T04:18:56.929Z,95921.53
2023-04-20T04:21:25.408Z,95916.47
2023-04-20T04:23:59.680Z,95918.69
2023-04-20T04:26:38.395Z,95915.63
2023-04-20T04:29:07.075Z,95905.88
2023-04-20T04:31:37.290Z,95909.91
2023-04-20T04:34:13.799Z,95901.41
2023-04-20T04:36:46.988Z,95906.28
2023-04-20T04:39:19.501Z,95903.84
2023-04-20T04:42:04.803Z,95904.66
2023-04-20T04:44:42.211Z,95908.50
2023-04-20T04:47:14.368Z,95900.81
2023-04-20T04:49:42.724Z,95904.47
2023-04-20T04:52:11.045Z,95898.16
2023-04-20T04:54:39.134Z,95895.53
2023-04-20T04:57:08.980Z,95898.16
2023-04-20T04:59:37.397Z,95902.22
2023-04-20T05:02:05.614Z,95897.53
2023-04-20T05:04:33.851Z,95905.00
2023-04-20T05:07:02.147Z,95914.53
2023-04-20T05:09:33.575Z,95916.16
2023-04-20T05:12:02.724Z,95921.63
2023-04-20T05:14:32.752Z,95917.09
2023-04-20T05:17:01.381Z,95920.28
2023-04-20T05:19:29.675Z,95912.50
2023-04-20T05:21:57.831Z,95923.03
2023-04-20T05:24:25.925Z,95917.69
2023-04-20T05:26:54.061Z,95922.97
2023-04-20T05:29:22.170Z,95921.66
2023-04-20T05:31:51.696Z,95926.06
2023-04-20T05:34:19.817Z,95923.59
2023-04-20T05:36:48.204Z,95932.69
2023-04-20T05:39:16.672Z,95929.41
2023-04-20T05:41:45.087Z,95929.31
2023-04-20T05:44:13.192Z,95926.78
2023-04-20T05:46:41.292Z,95928.47
2023-04-20T05:49:11.143Z,95927.28
2023-04-20T05:51:39.248Z,95944.84
2023-04-20T05:54:07.410Z,95940.28
2023-04-20T05:56:35.526Z,95939.75
2023-04-20T05:59:03.654Z,95940.03
2023-04-20T06:01:31.776Z,95937.66
2023-04-20T06:04:00.402Z,95934.03
2023-04-20T06:06:30.247Z,95941.06
2023-04-20T06:08:58.376Z,95937.03
2023-04-20T06:11:26.500Z,95942.13
2023-04-20T06:13:54.689Z,95937.09
2023-04-20T06:16:23.399Z,95930.78
2023-04-20T06:18:51.636Z,95936.56
2023-04-20T06:21:20.245Z,95929.78
2023-04-20T06:23:50.301Z,95939.56
2023-04-20T06:26:18.364Z,95944.66
2023-04-20T06:28:48.333Z,95939.34
2023-04-20T06:31:17.058Z,95933.41
2023-04-20T06:33:45.181Z,95943.53
2023-04-20T06:36:13.276Z,95937.66
2023-04-20T06:38:41.817Z,95948.03
2023-04-20T06:41:11.263Z,95944.56
2023-04-20T06:43:39.511Z,95941.75
2023-04-20T06:46:07.933Z,95939.22
2023-04-20T06:48:36.147Z,95940.63
2023-04-20T06:51:05.079Z,95943.69
2023-04-20T06:53:33.173Z,95940.03
2023-04-20T06:56:01.332Z,95933.41
2023-04-20T06:58:31.435Z,95932.28
2023-04-20T07:00:59.610Z,95932.13
2023-04-20T07:03:27.993Z,95929.91
2023-04-20T07:05:56.128Z,95930.66
2023-04-20T07:08:24.259Z,95937.59
2023-04-20T07:10:52.725Z,95938.47
2023-04-20T07:13:20.845Z,95943.44
2023-04-20T07:15:50.511Z,95940.78
2023-04-20T07:18:18.624Z,95937.88
2023-04-20T07:20:46.754Z,95934.16
2023-04-20T07:23:14.900Z,95943.47
2023-04-20T07:25:43.377Z,95941.88
2023-04-20T07:28:11.486Z,95944.44
2023-04-20T07:30:39.568Z,95944.78
2023-04-20T07:33:11.195Z,95936.16
2023-04-20T07:35:39.365Z,95934.75
2023-04-20T07:38:07.476Z,95933.38
2023-04-20T07:40:35.971Z,95934.38
2023-04-20T07:43:04.099Z,95935.53
2023-04-20T07:45:32.204Z,95940.31
2023-04-20T07:48:01.651Z,95944.66
2023-04-20T07:50:31.302Z,95947.19
2023-04-20T07:52:59.906Z,95951.84
2023-04-20T07:55:27.983Z,95942.53
2023-04-20T07:57:56.078Z,95953.63
2023-04-20T08:00:25.428Z,95946.28
2023-04-20T08:02:53.755Z,95951.75
2023-04-20T08:05:22.480Z,95952.53
2023-04-20T08:07:52.183Z,95950.78
2023-04-20T08:10:20.268Z,95958.94
2023-04-20T08:12:51.134Z,95952.75
2023-04-20T08:15:20.899Z,95943.28
2023-04-20T08:17:48.993Z,95945.75
2023-04-20T08:20:17.147Z,95943.34
2023-04-20T08:22:45.278Z,95939.06
2023-04-20T08:25:14.751Z,95949.09
2023-04-20T08:27:42.893Z,95938.88
2023-04-20T08:30:11.684Z,95946.09
2023-04-20T08:32:41.105Z,95949.16
2023-04-20T08:35:09.718Z,95952.72
2023-04-20T08:37:38.724Z,95945.78
2023-04-20T08:40:07.941Z,95955.81
2023-04-20T08:42:37.478Z,95949.44
2023-04-20T08:45:06.138Z,95947.91
2023-04-20T08:47:35.080Z,95952.22
2023-04-20T08:50:03.847Z,95946.00
2023-04-20T08:52:31.930Z,95950.72
2023-04-20T08:55:00.044Z,95953.88
2023-04-20T08:57:28.122Z,95935.00
2023-04-20T08:59:57.927Z,95938.56
2023-04-20T09:02:26.250Z,95936.41
2023-04-20T09:05:02.502Z,95947.81
2023-04-20T09:07:30.752Z,95950.97
2023-04-20T09:09:59.449Z,95945.97
2023-04-20T09:12:27.576Z,95954.00
2023-04-20T09:14:57.443Z,95948.53
2023-04-20T09:17:33.084Z,95972.56
2023-04-20T09:20:01.295Z,95962.69
2023-04-20T09:22:32.668Z,95961.75
2023-04-20T09:25:01.265Z,95956.63
2023-04-20T09:27:29.708Z,95959.91
2023-04-20T09:30:00.228Z,95955.34
2023-04-20T09:32:29.467Z,95955.28
2023-04-20T09:34:57.783Z,95950.41
2023-04-20T09:37:25.926Z,95944.28
2023-04-20T09:39:54.567Z,95937.31
2023-04-20T09:42:22.687Z,95940.91
2023-04-20T09:44:50.755Z,95938.25
2023-04-20T09:47:20.254Z,95942.78
2023-04-20T09:49:48.307Z,95933.41
2023-04-20T09:52:18.355Z,95942.47
2023-04-20T09:54:46.916Z,95941.47
2023-04-20T09:57:15.335Z,95934.03
2023-04-20T09:59:44.338Z,95935.13
2023-04-20T10:02:13.348Z,95931.75
2023-04-20T10:04:54.747Z,95930.22
2023-04-20T10:07:27.197Z,95932.38
2023-04-20T10:10:13.729Z,95925.97
2023-04-20T10:12:48.889Z,95927.59
2023-04-20T10:15:17.084Z,95923.59
2023-04-20T10:17:45.433Z,95924.88
2023-04-20T10:20:22.334Z,95934.84
2023-04-20T10:22:51.361Z,95929.06
2023-04-20T10:25:20.658Z,95930.03
2023-04-20T10:27:59.010Z,95925.69
2023-04-20T10:30:27.749Z,95924.41
2023-04-20T10:33:06.591Z,95916.09
2023-04-20T10:35:48.131Z,95914.25
2023-04-20T10:38:16.370Z,95918.53
2023-04-20T10:40:44.478Z,95917.50
2023-04-20T10:43:22.381Z,95917.19
2023-04-20T10:45:50.544Z,95919.25
2023-04-20T10:48:19.976Z,95911.47
2023-04-20T10:50:50.152Z,95906.63
2023-04-20T10:53:22.104Z,95904.91
2023-04-20T10:55:59.424Z,95896.50
2023-04-20T10:58:27.586Z,95895.50
2023-04-20T11:00:59.354Z,95884.59
2023-04-20T11:03:30.346Z,95888.66
2023-04-20T11:06:01.603Z,95885.75
2023-04-20T11:08:39.976Z,95884.09
2023-04-20T11:11:18.733Z,95884.84
2023-04-20T11:13:46.865Z,95878.38
2023-04-20T11:16:16.181Z,95875.59
2023-04-20T11:18:52.665Z,95890.53
2023-04-20T11:21:22.401Z,95882.69
2023-04-20T11:23:50.763Z,95884.75
2023-04-20T11:26:18.899Z,95879.31
2023-04-20T11:28:56.714Z,95891.72
2023-04-20T11:31:26.446Z,95892.78
2023-04-20T11:33:54.774Z,95883.53
2023-04-20T11:36:24.868Z,95877.78
2023-04-20T11:38:53.092Z,95869.84
2023-04-20T11:41:21.851Z,95865.16
2023-04-20T11:43:51.290Z,95870.25
2023-04-20T11:46:20.343Z,95869.00
2023-04-20T11:48:49.559Z,95863.78
2023-04-20T11:51:17.802Z,95865.84
2023-04-20T11:53:47.691Z,95864.19
2023-04-20T11:56:16.628Z,95868.50
2023-04-20T11:58:44.780Z,95866.09
2023-04-20T12:01:13.379Z,95864.03
2023-04-20T12:03:41.631Z,95867.31
2023-04-20T12:06:10.175Z,95855.06
2023-04-20T12:08:38.367Z,95852.91
2023-04-20T12:11:09.836Z,95851.88
2023-04-20T12:13:38.076Z,95863.31
2023-04-20T12:16:07.316Z,95861.66
2023-04-20T12:18:35.599Z,95856.06
2023-04-20T12:21:03.706Z,95861.97
2023-04-20T12:23:33.185Z,95857.97
2023-04-20T12:26:01.323Z,95848.91
2023-04-20T12:28:30.842Z,95854.53
2023-04-20T12:30:58.948Z,95849.22
2023-04-20T12:33:27.099Z,95849.47
2023-04-20T12:35:55.772Z,95844.16
2023-04-20T12:38:23.863Z,95832.66
2023-04-20T12:40:51.935Z,95820.63
2023-04-20T12:43:20.107Z,95824.88
2023-04-20T12:45:49.572Z,95824.84
2023-04-20T12:48:17.723Z,95818.19
2023-04-20T12:50:46.248Z,95817.41
2023-04-20T12:53:14.530Z,95819.09
2023-04-20T12:55:42.640Z,95809.19
2023-04-20T12:58:11.304Z,95804.09
2023-04-20T13:00:39.497Z,95794.50
2023-04-20T13:03:09.105Z,95796.16
2023-04-20T13:05:37.324Z,95795.09
2023-04-20T13:08:05.565Z,95794.03
2023-04-20T13:10:33.741Z,95795.66
2023-04-20T13:13:02.274Z,95793.75
2023-04-20T13:15:39.233Z,95791.03
2023-04-20T13:18:10.744Z,95791.50
2023-04-20T13:20:38.970Z,95788.25
2023-04-20T13:23:07.106Z,95782.38
2023-04-20T13:25:35.220Z,95778.66
2023-04-20T13:28:03.900Z,95790.22
2023-04-20T13:30:32.159Z,95780.09
2023-04-20T13:33:00.750Z,95781.69
2023-04-20T13:35:30.377Z,95776.34
2023-04-20T13:37:58.602Z,95777.06
2023-04-20T13:40:26.877Z,95776.44
2023-04-20T13:42:54.997Z,95771.19
2023-04-20T13:45:23.567Z,95777.03
2023-04-20T13:47:51.798Z,95773.22
2023-04-20T13:50:19.903Z,95768.63
2023-04-20T13:52:50.117Z,95765.31
2023-04-20T13:55:20.415Z,95762.59
2023-04-20T13:57:48.613Z,95765.28
2023-04-20T14:00:17.684Z,95765.06
2023-04-20T14:02:46.017Z,95769.75
2023-04-20T14:05:14.242Z,95761.50
2023-04-20T14:07:42.383Z,95761.50
2023-04-20T14:10:12.109Z,95766.06
2023-04-20T14:12:40.229Z,95766.78
2023-04-20T14:15:09.600Z,95771.88
2023-04-20T14:17:37.738Z,95769.78
2023-04-20T14:20:07.035Z,95765.84
2023-04-20T14:22:36.752Z,95771.50
2023-04-20T14:25:05.137Z,95775.81
2023-04-20T14:27:35.097Z,95762.97
2023-04-20T14:30:04.639Z,95771.03
2023-04-20T14:32:32.837Z,95770.75
2023-04-20T14:35:01.649Z,95770.22
2023-04-20T14:37:31.041Z,95771.31
2023-04-20T14:39:59.612Z,95778.25
2023-04-20T14:42:27.705Z,95782.78
2023-04-20T14:44:57.501Z,95789.47
2023-04-20T14:47:25.809Z,95796.94
2023-04-20T14:49:54.070Z,95790.00
2023-04-20T14:52:22.233Z,95795.38
2023-04-20T14:54:50.762Z,95790.56
2023-04-20T14:57:18.877Z,95794.03
2023-04-20T14:59:47.080Z,95790.53
2023-04-20T15:02:18.364Z,95783.03
2023-04-20T15:04:46.695Z,95788.66
2023-04-20T15:07:15.352Z,95793.19
2023-04-20T15:09:43.524Z,95788.94
2023-04-20T15:12:11.624Z,95786.56
2023-04-20T15:14:39.716Z,95786.28
2023-04-20T15:17:07.842Z,95788.38
2023-04-20T15:19:37.410Z,95774.22
2023-04-20T15:22:05.604Z,95783.34
2023-04-20T15:24:33.931Z,95779.81
2023-04-20T15:27:02.766Z,95779.03
2023-04-20T15:29:31.724Z,95774.75
2023-04-20T15:31:59.963Z,95772.38
2023-04-20T15:34:28.645Z,95765.44
2023-04-20T15:36:58.193Z,95772.91
2023-04-20T15:39:26.287Z,95762.75
2023-04-20T15:41:54.402Z,95768.34
2023-04-20T15:44:22.599Z,95764.03
2023-04-20T15:46:50.741Z,95769.91
2023-04-20T15:49:20.536Z,95760.78
2023-04-20T15:51:48.727Z,95766.97
2023-04-20T15:54:19.667Z,95752.25
2023-04-20T15:56:48.012Z,95765.94
2023-04-20T15:59:16.111Z,95764.84
2023-04-20T16:01:44.342Z,95755.22
2023-04-20T16:04:13.869Z,95750.41
2023-04-20T16:06:42.090Z,95763.53
2023-04-20T16:09:10.406Z,95759.25
2023-04-20T16:11:40.215Z,95762.72
2023-04-20T16:14:08.370Z,95761.38
2023-04-20T16:16:36.552Z,95757.91
2023-04-20T16:19:05.041Z,95755.25
2023-04-20T16:21:33.111Z,95760.59
2023-04-20T16:24:01.424Z,95757.91
2023-04-20T16:26:29.597Z,95757.63
2023-04-20T16:28:59.114Z,95755.50
2023-04-20T16:31:28.077Z,95752.06
2023-04-20T16:33:56.217Z,95760.34
2023-04-20T16:36:24.338Z,95760.34
2023-04-20T16:38:52.483Z,95750.97
2023-04-20T16:41:20.686Z,95756.59
2023-04-20T16:43:49.436Z,95750.44
2023-04-20T16:46:22.192Z,95741.88
2023-04-20T16:48:50.941Z,95746.66
2023-04-20T16:51:19.069Z,95748.56
2023-04-20T16:53:47.178Z,95750.16
2023-04-20T16:56:15.856Z,95752.00
2023-04-20T16:58:44.313Z,95741.31
2023-04-20T17:01:14.212Z,95749.09
2023-04-20T17:03:43.782Z,95744.78
2023-04-20T17:06:12.137Z,95742.41
2023-04-20T17:08:40.287Z,95755.22
2023-04-20T17:11:08.978Z,95761.59
2023-04-20T17:13:37.075Z,95755.16
2023-04-20T17:16:05.801Z,95755.69
2023-04-20T17:18:35.229Z,95762.31
2023-04-20T17:21:05.093Z,95766.06
2023-04-20T17:23:34.708Z,95771.06
2023-04-20T17:26:03.905Z,95773.13
2023-04-20T17:28:32.081Z,95763.75
2023-04-20T17:31:00.192Z,95775.69
2023-04-20T17:33:28.305Z,95768.44
2023-04-20T17:35:57.262Z,95777.16
2023-04-20T17:38:27.183Z,95777.88
2023-04-20T17:40:55.281Z,95779.91
2023-04-20T17:43:23.412Z,95789.75
2023-04-20T17:45:51.551Z,95781.69
2023-04-20T17:48:19.656Z,95779.69
2023-04-20T17:50:49.727Z,95775.34
2023-04-20T17:53:17.818Z,95783.28
2023-04-20T17:55:47.302Z,95781.63
2023-04-20T17:58:15.404Z,95786.38
2023-04-20T18:00:44.049Z,95791.06
2023-04-20T18:03:14.751Z,95785.47
2023-04-20T18:05:43.595Z,95787.22
2023-04-20T18:08:13.320Z,95787.94
2023-04-20T18:10:41.506Z,95795.34
2023-04-20T18:13:11.109Z,95797.63
2023-04-20T18:15:39.349Z,95800.50
2023-04-20T18:18:07.791Z,95796.16
2023-04-20T18:20:35.913Z,95789.97
2023-04-20T18:23:04.039Z,95803.75
2023-04-20T18:25:32.174Z,95806.38
2023-04-20T18:28:00.314Z,95793.56
2023-04-20T18:30:29.794Z,95802.81
2023-04-20T18:32:58.416Z,95805.72
2023-04-20T18:35:26.818Z,95806.78
2023-04-20T18:37:55.265Z,95805.91
2023-04-20T18:40:23.570Z,95808.34
2023-04-20T18:42:51.749Z,95802.25
2023-04-20T18:45:21.794Z,95807.09
2023-04-20T18:47:51.430Z,95809.53
2023-04-20T18:50:19.593Z,95807.34
2023-04-20T18:52:47.692Z,95809.38
2023-04-20T18:55:15.783Z,95806.16
2023-04-20T18:57:44.342Z,95806.91
2023-04-20T19:00:14.258Z,95802.13
2023-04-20T19:02:42.536Z,95811.91
2023-04-20T19:05:13.082Z,95809.25
2023-04-20T19:07:41.209Z,95806.59
2023-04-20T19:10:10.618Z,95810.78
2023-04-20T19:12:39.089Z,95801.22
2023-04-20T19:15:08.725Z,95807.03
2023-04-20T19:17:37.123Z,95807.75
2023-04-20T19:20:06.154Z,95811.28
2023-04-20T19:22:35.886Z,95815.22
2023-04-20T19:25:04.401Z,95808.06
2023-04-20T19:27:32.526Z,95804.13
2023-04-20T19:30:00.706Z,95812.56
2023-04-20T19:32:28.908Z,95806.44
2023-04-20T19:34:59.226Z,95805.31
2023-04-20T19:37:27.395Z,95801.00
2023-04-20T19:39:57.439Z,95796.25
2023-04-20T19:42:25.650Z,95796.47
2023-04-20T19:44:54.652Z,95797.78
2023-04-20T19:47:22.838Z,95788.69
2023-04-20T19:49:50.953Z,95786.09
2023-04-20T19:52:19.453Z,95788.25
2023-04-20T19:54:47.586Z,95786.91
2023-04-20T19:57:17.144Z,95788.44
2023-04-20T19:59:45.366Z,95786.91
2023-04-20T20:02:13.668Z,95783.66
2023-04-20T20:04:42.053Z,95788.19
2023-04-20T20:07:10.730Z,95788.44
2023-04-20T20:09:40.747Z,95785.53
2023-04-20T20:12:10.840Z,95792.69
2023-04-20T20:14:40.692Z,95786.66
2023-04-20T20:17:08.895Z,95790.31
2023-04-20T20:19:36.993Z,95784.19
2023-04-20T20:22:05.135Z,95784.41
2023-04-20T20:24:33.206Z,95791.41
2023-04-20T20:27:02.399Z,95791.97
2023-04-20T20:29:30.507Z,95792.78
2023-04-20T20:32:00.002Z,95792.28
2023-04-20T20:34:28.413Z,95786.91
2023-04-20T20:36:56.522Z,95789.38
2023-04-20T20:39:24.604Z,95781.38
2023-04-20T20:41:52.776Z,95786.50
2023-04-20T20:44:20.994Z,95792.66
2023-04-20T20:46:49.718Z,95785.22
2023-04-20T20:49:19.556Z,95786.69
2023-04-20T20:51:47.775Z,95782.28
2023-04-20T20:54:15.982Z,95785.13
2023-04-20T20:56:44.642Z,95791.06
2023-04-20T20:59:12.728Z,95789.44
2023-04-20T21:01:41.455Z,95789.06
2023-04-20T21:04:09.707Z,95788.75
2023-04-20T21:06:39.320Z,95787.66
2023-04-20T21:09:07.441Z,95791.59
2023-04-20T21:11:35.564Z,95793.13
2023-04-20T21:14:04.115Z,95795.22
2023-04-20T21:16:32.695Z,95787.50
2023-04-20T21:19:00.924Z,95785.88
2023-04-20T21:21:29.130Z,95784.50
2023-04-20T21:23:58.707Z,95774.34
2023-04-20T21:26:26.798Z,95775.69
2023-04-20T21:28:55.507Z,95784.84
2023-04-20T21:31:23.711Z,95782.94
2023-04-20T21:33:51.949Z,95785.59
2023-04-20T21:36:20.089Z,95783.72
2023-04-20T21:38:48.787Z,95790.09
2023-04-20T21:41:19.247Z,95792.75
2023-04-20T21:43:47.797Z,95792.28
2023-04-20T21:46:16.065Z,95794.34
2023-04-20T21:48:44.230Z,95791.69
2023-04-20T21:51:16.037Z,95795.63
2023-04-20T21:53:44.194Z,95795.00
2023-04-20T21:56:12.338Z,95799.50
2023-04-20T21:58:42.235Z,95800.72
2023-04-20T22:01:10.342Z,95802.72
2023-04-20T22:03:38.686Z,95804.34
2023-04-20T22:06:07.655Z,95799.19
2023-04-20T22:08:39.654Z,95796.09
2023-04-20T22:11:08.389Z,95805.50
2023-04-20T22:13:36.840Z,95814.44
2023-04-20T22:16:07.132Z,95811.34
2023-04-20T22:18:35.402Z,95804.44
2023-04-20T22:21:03.575Z,95809.50
2023-04-20T22:23:31.713Z,95815.94
2023-04-20T22:26:00.242Z,95822.19
2023-04-20T22:28:28.391Z,95820.97
2023-04-20T22:30:56.806Z,95818.19
2023-04-20T22:33:26.276Z,95813.28
2023-04-20T22:35:55.533Z,95813.34
2023-04-20T22:38:23.981Z,95826.84
2023-04-20T22:40:52.138Z,95820.81
2023-04-20T22:43:21.168Z,95826.66
2023-04-20T22:45:49.289Z,95834.00
2023-04-20T22:48:17.653Z,95828.56
2023-04-20T22:50:47.133Z,95824.81
2023-04-20T22:53:15.694Z,95820.47
2023-04-20T22:55:43.820Z,95820.88
2023-04-20T22:58:11.916Z,95806.44
2023-04-20T23:00:40.084Z,95805.78
2023-04-20T23:03:08.414Z,95812.78
2023-04-20T23:05:37.114Z,95815.28
2023-04-20T23:08:06.699Z,95806.69
2023-04-20T23:10:34.940Z,95801.75
2023-04-20T23:13:05.063Z,95807.13
2023-04-20T23:15:33.148Z,95802.88
2023-04-20T23:18:01.295Z,95793.25
2023-04-20T23:20:29.730Z,95805.78
2023-04-20T23:22:57.947Z,95802.84
2023-04-20T23:25:27.490Z,95792.75
2023-04-20T23:27:55.621Z,95793.06
2023-04-20T23:30:23.963Z,95788.78
2023-04-20T23:32:52.489Z,95786.72
2023-04-20T23:35:20.890Z,95785.63
2023-04-20T23:37:49.046Z,95784.59
2023-04-20T23:40:17.146Z,95786.72
2023-04-20T23:42:46.748Z,95780.06
2023-04-20T23:45:14.820Z,95788.09
2023-04-20T23:47:43.475Z,95781.19
2023-04-20T23:50:12.030Z,95779.03
2023-04-20T23:52:41.067Z,95776.88
2023-04-20T23:55:10.155Z,95775.03
2023-04-20T23:57:38.287Z,95778.50
